Central Sonoma County Latest

37 Stations

15 Minute Data | America/Los_Angeles
as of 9/2/26 2:08 PM PDT
Station Date Time Temp (°F) RH (%) Dew Pt (°F) Wind Spd (mph) Wind Dir (°) Wind Gust (mph) Latest Rain (In) Daily Rain (In) Daily Max Temp (°F) Daily Min Temp (°F)
Windsor-NW (Ranch 8) 9/2/26 1400 70.8   1.0 64   13 57.8   5.1 0.0   0.0 ESE | 119 0.0   0.0 0.00 0.28 72.0   2.3 59.2   6.9
Windsor-East (Ranch 16) 9/2/26 1400 72.2   1.5 51   3 52.8   3.1 5.3   1.8 SSW | 212 11.8   0.3 0.00 0.15 73.6   0.5 59.1   8.2
Mark West-North (Ranch 14) 9/2/26 1400 73.2   2.8 45   2 50.4   1.6 2.1   1.0 WNW | 298 6.5   2.3 0.00 0.13 73.9   0.2 59.5   7.5
Windsor-SE (Silk Rd) 9/2/26 1345 71.1   1.0 56   11 54.7   4.8 3.9   1.0 SW | 232 8.6   1.1 0.00 0.20 71.6   1.0 58.9   11.8
Fulton-NW (Ranch 5) 9/2/26 1400 71.1   0.5 55   7 54.2   3.2 4.7   0.6 S | 182 8.4   2.9 0.00 0.11 71.7   0.6 59.5   10.6
Bisordi (Fulton) 9/2/26 1400 71.7   1.5 63   10 58.3   3.5 2.9   1.9 SSW | 209 8.0   4.2 0.00 0.08 71.8   1.4 59.7   11.1
Windsor-South (Laughlin Rd) 9/2/26 1400 72.2   0.3 51   6 53.0   3.1 - - - 0.00 0.11 73.2   0.9 59.0   7.4
Fulton-SE (Barnes Rd) 9/2/26 1400 71.4   0.2 52   3 53.2   1.2 0.0   5.8 N | 0 0.0   13.2 0.00 0.10 72.0   0.1 59.9   9.0
Fulton-SW (Ranch 21) 9/2/26 1400 70.7   1.7 56   10 54.5   3.8 5.3   2.6 SSW | 209 9.8   3.7 0.00 0.09 71.3   2.3 59.4   9.1
NW Santa Rosa (Piner Road) 9/2/26 1400 70.7   1.0 65   11 58.5   4.4 2.5   1.3 WSW | 252 6.8   5.5 0.00 0.00 71.0   1.9 59.6   12.3
River Rd South (Denner Ranch) 9/2/26 1400 71.7   0.0 52   6 53.4   3.5 5.7   2.8 SSW | 208 11.6   1.5 - - 72.6   0.7 57.6   9.4
West Santa Rosa (LOV Vineyard) 8/26/26 0900 53.3   5.2 97   6 52.4   3.5 1.0   0.1 SW | 224 3.6   0.0 0.00 0.00 53.6   5.2 50.2   1.8
Guerneville Rd (Prokopakis) 9/2/26 1400 75.8   0.8 50   7 55.7   4.6 - - - 0.00 0.09 76.3   3.2 59.2   10.9
SunnyView Vineyard (SCWC) 9/2/26 1400 72.0   0.2 52   6 53.4   3.0 3.5   1.8 SSW | 196 8.5   5.1 0.00 0.08 72.6   0.6 59.2   13.8
Guerneville Rd West (Balletto) 9/2/26 1400 71.0   0.6 62   10 57.4   4.1 4.5   2.3 WSW | 258 8.9   4.0 0.00 0.12 71.5   1.6 59.2   11.0
Sanchietti Ranch 9/2/26 1400 72.9   0.2 63   9 59.7   4.0 5.6   2.2 WSW | 239 11.9   2.9 0.00 0.07 72.9   1.8 58.6   9.5
Occidental Rd (Sebastopol) 9/2/26 1400 72.5   0.4 74   14 63.7   5.6 3.9   2.8 WSW | 248 9.9   4.0 0.00 0.06 73.2   2.2 57.5   7.6
Harper's Rest (Windsor-West) 9/2/26 1345 72.7   2.2 53   14 54.5   6.0 2.8   0.6 SW | 220 7.1   1.9 0.00 0.27 73.5   1.8 58.0   9.8
Lower Westside Rd (Ranch 12) 9/2/26 1400 71.4   0.3 57   13 55.5   6.7 3.2   3.4 SW | 225 8.6   4.5 0.00 0.28 71.9   2.4 58.8   11.1
Guerneville (Laughlin Rd) 9/2/26 1345 70.8   0.1 56   8 54.4   4.3 4.7   1.1 S | 175 10.7   2.3 0.00 0.38 71.2   2.8 58.0   11.5
Korbel (Winery) 9/2/26 1400 71.1   0.1 57   10 55.3   5.1 0.1   4.1 SSE | 160 4.8   8.0 0.00 0.20 72.0   1.4 59.2   10.5
Forestville (Shone Farms) 9/2/26 1400 71.3   1.6 59   14 56.4   5.8 3.7   0.6 SSW | 202 8.6   3.4 0.00 0.28 72.6   1.7 57.6   6.1
Forestville-NE (Ranch 30) 9/2/26 1315 70.3   1.5 65   11 58.1   6.2 4.2   3.4 SW | 226 7.2   5.2 0.00 0.26 71.2   2.6 58.1   8.7
Foggy Bend (Ranch 41) 9/2/26 1400 70.9   1.3 63   10 57.7   3.7 4.3   2.7 SW | 233 9.9   3.6 0.00 0.26 71.8   2.1 59.2   8.6
Last Stop 9/2/26 1400 70.4   0.5 61   13 56.5   5.8 3.6   0.7 SW | 227 9.9   2.0 0.00 0.27 71.3   1.6 58.9   11.5
Green Valley Vineyard 9/2/26 1400 70.3   0.1 59   9 55.2   4.8 3.7   1.4 W | 269 9.2   5.9 0.00 0.34 70.8   1.7 58.2   9.4
Park Royal 9/2/26 1400 71.5   0.9 52   6 53.0   2.6 - - - 0.00 0.05 71.9   0.9 59.4   10.2
Merino 9/2/26 1400 73.2   1.7 58   10 57.5   3.5 2.6   1.1 SW | 224 6.9   4.4 0.00 0.07 74.1   2.1 57.2   10.3
Green Valley (Sanchietti) 9/2/26 1400 71.6   1.5 - - - - - - - 73.2   2.0 58.8   15.1
Keefer Ranch (Green Valley) 9/2/26 1400 70.9   0.9 63   12 57.8   6.4 - - - 0.00 0.28 71.0   1.1 58.9   12.9
Graton-West (Dutton Ranch) 9/2/26 1400 71.4   1.6 71   23 61.4   9.6 2.9   2.1 SW | 216 7.1   6.7 0.00 0.29 72.1   2.4 59.3   12.8
Graton-South (Mill Station Rd) 9/2/26 1400 70.1   0.2 59   5 55.0   2.9 2.4   1.5 SW | 218 5.8   3.1 0.00 0.13 70.7   0.2 57.5   6.5
Occidental (Horseshoe Bend) 9/2/26 1400 66.5   2.8 69   17 56.0   4.8 - - - 0.00 0.31 67.2   2.8 57.9   7.8
Sexton Valley (Jacqueline's Blk) 9/2/26 1400 69.9   0.8 65   7 57.6   2.6 3.0   0.4 WSW | 258 8.6   0.4 0.00 0.13 71.0   2.2 56.4   4.4
Sebastopol Hills (Burnside Rd) 9/2/26 1400 67.7   1.4 68   6 56.9   3.9 4.0   1.8 WSW | 245 10.1   2.2 0.00 0.00 68.2   0.3 58.0   3.8
Pleasant Hill 9/2/26 1400 71.6   1.1 59   11 56.4   4.9 4.1   1.4 WSW | 240 10.0   2.9 0.00 0.16 72.0   1.5 56.3   2.6
Seaview/Fort Ross (Hirsch) 9/2/26 1400 61.9   2.6 74   4 53.8   1.1 3.6   0.2 W | 260 8.0   3.4 0.00 0.00 62.7   1.8 55.2   2.1
Max     75.8 74 63.7 5.7 - 11.9 0.00 0.38 76.3 59.9
Avg     71.0 59 56.0 3.4 - 8.1 0.00 - - -
Min     61.9 45 50.4 0.0 - 0.0 0.00 0.00 62.7 55.2